Time;durP1;ratioP1;P1;durP2;ratioP2;P2;SDS_P1;SDS_P2;PMS_P1;PMS_P2;Temp;Humidity;BMP_temperature;BMP_pressure;BME280_temperature;BME280_humidity;BME280_pressure;Samples;Min_cycle;Max_cycle;Signal;HPM_P1;HPM_P2
2022/08/27 00:00:30;0.00;0.00;0.62;0.00;0.00;0.62;3.70;3.10;;;27.80;41.40;;;;;;2241329;62;20370;-71
2022/08/27 00:03:15;0.00;0.00;0.62;0.00;0.00;0.62;7.03;3.87;;;27.80;41.40;;;;;;2242332;62;20660;-69
2022/08/27 00:06:01;0.00;0.00;0.62;0.00;0.00;0.62;4.20;3.30;;;27.80;41.40;;;;;;2242111;62;20365;-69
2022/08/27 00:08:47;0.00;0.00;0.62;0.00;0.00;0.62;5.20;3.57;;;27.80;41.30;;;;;;2241049;62;20390;-70
2022/08/27 00:11:32;0.00;0.00;0.62;0.00;0.00;0.62;6.57;3.50;;;27.80;41.30;;;;;;2242333;62;20362;-71
2022/08/27 00:14:18;0.00;0.00;0.62;0.00;0.00;0.62;6.10;3.30;;;27.90;41.30;;;;;;2241859;62;20451;-71
2022/08/27 00:17:04;0.00;0.00;0.62;0.00;0.00;0.62;4.67;3.47;;;27.90;41.20;;;;;;2241909;62;20702;-68
2022/08/27 00:19:50;0.00;0.00;0.62;0.00;0.00;0.62;5.70;3.70;;;28.00;41.30;;;;;;2241828;62;20367;-68
2022/08/27 00:22:34;0.00;0.00;0.62;0.00;0.00;0.62;5.47;3.30;;;28.00;41.10;;;;;;2241292;62;20500;-69
2022/08/27 00:25:20;0.00;0.00;0.62;0.00;0.00;0.62;7.43;3.50;;;28.00;41.00;;;;;;2242167;62;20435;-71
2022/08/27 00:28:05;0.00;0.00;0.62;0.00;0.00;0.62;7.33;3.90;;;28.00;40.90;;;;;;2241729;62;20382;-70
2022/08/27 00:30:51;0.00;0.00;0.62;0.00;0.00;0.62;5.50;3.57;;;28.00;40.90;;;;;;2241315;62;20410;-70
2022/08/27 00:33:37;0.00;0.00;0.62;0.00;0.00;0.62;5.50;3.37;;;28.00;40.80;;;;;;2242075;62;20362;-70
2022/08/27 00:36:22;0.00;0.00;0.62;0.00;0.00;0.62;6.97;3.90;;;28.10;40.80;;;;;;2241980;62;20370;-72
2022/08/27 00:39:07;0.00;0.00;0.62;0.00;0.00;0.62;8.60;4.07;;;28.10;40.70;;;;;;2241714;62;20508;-71
2022/08/27 00:41:52;0.00;0.00;0.62;0.00;0.00;0.62;5.40;3.30;;;28.10;40.70;;;;;;2242151;62;20446;-71
2022/08/27 00:44:38;0.00;0.00;0.62;0.00;0.00;0.62;4.40;3.50;;;28.20;40.70;;;;;;2241135;62;20402;-70
2022/08/27 00:47:28;0.00;0.00;0.62;0.00;0.00;0.62;5.87;3.37;;;28.20;40.60;;;;;;2241982;62;20450;-70
2022/08/27 00:50:17;0.00;0.00;0.62;0.00;0.00;0.62;5.70;3.87;;;28.20;40.50;;;;;;2242325;62;20370;-68
2022/08/27 00:53:07;0.00;0.00;0.62;0.00;0.00;0.62;5.30;2.97;;;28.20;40.50;;;;;;2240908;62;20355;-71
2022/08/27 00:55:57;0.00;0.00;0.62;0.00;0.00;0.62;4.50;2.57;;;28.20;40.40;;;;;;2241904;62;20366;-70
2022/08/27 00:58:46;0.00;0.00;0.62;0.00;0.00;0.62;6.23;3.23;;;28.30;40.40;;;;;;2241879;62;20386;-70
2022/08/27 01:01:33;0.00;0.00;0.62;0.00;0.00;0.62;5.00;3.03;;;28.30;40.40;;;;;;2241833;62;20723;-71
2022/08/27 01:04:20;0.00;0.00;0.62;0.00;0.00;0.62;4.80;3.40;;;28.30;40.30;;;;;;2242156;62;20836;-70
2022/08/27 01:07:05;0.00;0.00;0.62;0.00;0.00;0.62;4.40;3.57;;;28.30;40.20;;;;;;2241064;62;20378;-69
2022/08/27 01:09:52;0.00;0.00;0.62;0.00;0.00;0.62;7.20;3.80;;;28.30;40.20;;;;;;2242057;62;20422;-70
2022/08/27 01:12:37;0.00;0.00;0.62;0.00;0.00;0.62;7.27;3.00;;;28.30;40.10;;;;;;2241791;62;20363;-71
2022/08/27 01:15:26;0.00;0.00;0.62;0.00;0.00;0.62;3.77;3.00;;;28.40;40.10;;;;;;2241207;62;20363;-69
2022/08/27 01:18:13;0.00;0.00;0.62;0.00;0.00;0.62;3.90;3.03;;;28.40;40.10;;;;;;2241678;62;20386;-69
2022/08/27 01:21:06;0.00;0.00;0.62;0.00;0.00;0.62;4.60;3.20;;;28.40;40.00;;;;;;2241828;62;20494;-71
2022/08/27 01:24:01;0.00;0.00;0.62;0.00;0.00;0.62;5.70;3.37;;;28.40;40.00;;;;;;2241226;62;20498;-70
2022/08/27 01:26:50;0.00;0.00;0.62;0.00;0.00;0.62;4.43;3.10;;;28.40;39.90;;;;;;2241588;62;20371;-69
2022/08/27 01:29:36;0.00;0.00;0.62;0.00;0.00;0.62;6.40;3.10;;;28.40;39.80;;;;;;2241068;62;20638;-71
2022/08/27 01:32:26;0.00;0.00;0.62;0.00;0.00;0.62;5.37;3.33;;;28.50;39.90;;;;;;2242065;62;20402;-69
2022/08/27 01:35:14;0.00;0.00;0.62;0.00;0.00;0.62;5.80;3.60;;;28.40;39.70;;;;;;2241667;62;20419;-70
2022/08/27 01:37:59;0.00;0.00;0.62;0.00;0.00;0.62;4.30;3.13;;;28.50;39.70;;;;;;2241306;62;20799;-69
2022/08/27 01:40:45;0.00;0.00;0.62;0.00;0.00;0.62;3.60;2.97;;;28.50;39.60;;;;;;2241633;61;20382;-70
2022/08/27 01:43:32;0.00;0.00;0.62;0.00;0.00;0.62;4.57;3.53;;;28.50;39.50;;;;;;2241304;61;20378;-70
2022/08/27 01:46:21;0.00;0.00;0.62;0.00;0.00;0.62;9.03;3.70;;;28.50;39.50;;;;;;2241767;62;20845;-69
2022/08/27 01:49:08;0.00;0.00;0.62;0.00;0.00;0.62;4.97;3.17;;;28.50;39.50;;;;;;2242029;62;20382;-71
2022/08/27 01:51:53;0.00;0.00;0.62;0.00;0.00;0.62;4.67;3.17;;;28.50;39.40;;;;;;2240881;62;20622;-70
2022/08/27 01:54:39;0.00;0.00;0.62;0.00;0.00;0.62;5.93;4.13;;;28.50;39.40;;;;;;2241989;62;20361;-68
2022/08/27 01:57:23;0.00;0.00;0.62;0.00;0.00;0.62;5.67;4.03;;;28.50;39.40;;;;;;2241868;62;20693;-70
2022/08/27 02:00:15;0.00;0.00;0.62;0.00;0.00;0.62;6.03;3.90;;;28.50;39.30;;;;;;2241338;62;20438;-69
2022/08/27 02:03:00;0.00;0.00;0.62;0.00;0.00;0.62;4.20;3.80;;;28.50;39.30;;;;;;2241976;62;20406;-70
2022/08/27 02:05:46;0.00;0.00;0.62;0.00;0.00;0.62;4.57;3.73;;;28.50;39.30;;;;;;2241106;62;20371;-70
2022/08/27 02:08:32;0.00;0.00;0.62;0.00;0.00;0.62;9.20;4.53;;;28.50;39.30;;;;;;2241475;62;20478;-71
2022/08/27 02:11:17;0.00;0.00;0.62;0.00;0.00;0.62;3.93;3.27;;;28.50;39.20;;;;;;2241467;62;20362;-70
2022/08/27 02:14:03;0.00;0.00;0.62;0.00;0.00;0.62;4.20;3.40;;;28.50;39.10;;;;;;2240844;62;20362;-70
2022/08/27 02:16:49;0.00;0.00;0.62;0.00;0.00;0.62;6.10;3.60;;;28.50;39.10;;;;;;2241799;62;20438;-69
2022/08/27 02:19:34;0.00;0.00;0.62;0.00;0.00;0.62;6.03;3.67;;;28.50;39.10;;;;;;2241782;62;20591;-70
2022/08/27 02:22:24;0.00;0.00;0.62;0.00;0.00;0.62;4.10;3.70;;;28.50;39.10;;;;;;2241311;62;20386;-69
2022/08/27 02:25:14;0.00;0.00;0.62;0.00;0.00;0.62;4.20;3.53;;;28.50;39.10;;;;;;2241705;62;20394;-69
2022/08/27 02:28:00;0.00;0.00;0.62;0.00;0.00;0.62;4.07;3.27;;;28.60;39.10;;;;;;2241223;62;21207;-70
2022/08/27 02:30:45;0.00;0.00;0.62;0.00;0.00;0.62;4.83;3.50;;;28.60;39.10;;;;;;2241944;62;20397;-69
2022/08/27 02:33:32;0.00;0.00;0.62;0.00;0.00;0.62;4.53;3.17;;;28.60;39.10;;;;;;2241796;62;20390;-69
2022/08/27 02:36:17;0.00;0.00;0.62;0.00;0.00;0.62;4.43;3.90;;;28.60;39.00;;;;;;2240825;62;20370;-69
2022/08/27 02:39:02;0.00;0.00;0.62;0.00;0.00;0.62;5.53;3.57;;;28.60;39.00;;;;;;2241801;62;20379;-70
2022/08/27 02:41:48;0.00;0.00;0.62;0.00;0.00;0.62;4.03;3.23;;;28.60;38.90;;;;;;2241323;62;20420;-70
2022/08/27 02:44:34;0.00;0.00;0.62;0.00;0.00;0.62;4.27;3.67;;;28.60;38.90;;;;;;2238148;62;20366;-69
2022/08/27 02:47:19;0.00;0.00;0.62;0.00;0.00;0.62;5.30;3.90;;;28.60;38.90;;;;;;2241712;62;20588;-70
2022/08/27 02:50:07;0.00;0.00;0.62;0.00;0.00;0.62;6.70;3.77;;;28.60;38.90;;;;;;2241473;62;20358;-69
2022/08/27 02:52:53;0.00;0.00;0.62;0.00;0.00;0.62;4.67;3.60;;;28.60;38.90;;;;;;2241258;62;20370;-70
2022/08/27 02:55:38;0.00;0.00;0.62;0.00;0.00;0.62;6.17;3.93;;;28.60;38.90;;;;;;2241211;62;20362;-69
2022/08/27 02:58:24;0.00;0.00;0.62;0.00;0.00;0.62;5.80;3.67;;;28.60;38.90;;;;;;2240379;62;20459;-69
2022/08/27 03:01:08;0.00;0.00;0.62;0.00;0.00;0.62;7.10;4.17;;;28.60;38.80;;;;;;2241759;62;20407;-70
2022/08/27 03:03:53;0.00;0.00;0.62;0.00;0.00;0.62;4.50;3.27;;;28.60;38.80;;;;;;2242530;62;20502;-69
2022/08/27 03:06:40;0.00;0.00;0.62;0.00;0.00;0.62;4.03;3.20;;;28.60;38.70;;;;;;2241374;61;20425;-70
2022/08/27 03:09:25;0.00;0.00;0.62;0.00;0.00;0.62;3.70;3.23;;;28.60;38.70;;;;;;2242446;62;20382;-70
2022/08/27 03:12:11;0.00;0.00;0.62;0.00;0.00;0.62;5.20;2.70;;;28.60;38.60;;;;;;2241876;62;20394;-70
2022/08/27 03:14:58;0.00;0.00;0.62;0.00;0.00;0.62;6.03;3.87;;;28.60;38.60;;;;;;2241620;62;20385;-69
2022/08/27 03:20:51;0.00;0.00;0.62;0.00;0.00;0.62;5.03;3.00;;;28.60;38.60;;;;;;2241549;62;20373;-69
2022/08/27 03:23:38;0.00;0.00;0.62;0.00;0.00;0.62;6.57;3.47;;;28.60;38.50;;;;;;2242388;62;20467;-68
2022/08/27 03:26:23;0.00;0.00;0.62;0.00;0.00;0.62;5.10;2.50;;;28.60;38.50;;;;;;2241760;62;20446;-70
2022/08/27 03:29:13;0.00;0.00;0.62;0.00;0.00;0.62;3.00;2.60;;;28.60;38.50;;;;;;2241758;62;20437;-69
2022/08/27 03:31:58;0.00;0.00;0.62;0.00;0.00;0.62;3.73;2.70;;;28.60;38.50;;;;;;2242383;62;20366;-71
2022/08/27 03:34:43;0.00;0.00;0.62;0.00;0.00;0.62;3.50;2.70;;;28.60;38.50;;;;;;2241671;62;20366;-69
2022/08/27 03:37:28;0.00;0.00;0.62;0.00;0.00;0.62;4.37;3.10;;;28.60;38.40;;;;;;2242508;62;20695;-70
2022/08/27 03:40:16;0.00;0.00;0.62;0.00;0.00;0.62;3.03;2.40;;;28.60;38.40;;;;;;2242045;62;20362;-69
2022/08/27 03:43:00;0.00;0.00;0.62;0.00;0.00;0.62;6.00;2.73;;;28.60;38.40;;;;;;2241367;62;20398;-68
2022/08/27 03:45:46;0.00;0.00;0.62;0.00;0.00;0.62;4.30;3.03;;;28.60;38.40;;;;;;2242216;62;20414;-70
2022/08/27 03:48:32;0.00;0.00;0.62;0.00;0.00;0.62;6.63;3.00;;;28.60;38.40;;;;;;2242035;62;20378;-70
2022/08/27 03:51:17;0.00;0.00;0.62;0.00;0.00;0.62;5.70;2.63;;;28.50;38.30;;;;;;2241728;62;20367;-70
2022/08/27 03:54:02;0.00;0.00;0.62;0.00;0.00;0.62;5.80;2.97;;;28.50;38.30;;;;;;2242294;62;20358;-71
2022/08/27 03:56:53;0.00;0.00;0.62;0.00;0.00;0.62;5.10;2.60;;;28.50;38.30;;;;;;2241145;62;20366;-69
2022/08/27 03:59:38;0.00;0.00;0.62;0.00;0.00;0.62;4.13;3.10;;;28.50;38.30;;;;;;2241841;62;20387;-70
2022/08/27 04:02:23;0.00;0.00;0.62;0.00;0.00;0.62;5.30;2.50;;;28.50;38.30;;;;;;2241956;62;20750;-71
2022/08/27 04:05:14;0.00;0.00;0.62;0.00;0.00;0.62;4.03;2.20;;;28.50;38.20;;;;;;2241276;62;20383;-70
2022/08/27 04:08:00;0.00;0.00;0.62;0.00;0.00;0.62;3.60;2.47;;;28.50;38.90;;;;;;2242293;62;20623;-70
2022/08/27 04:10:45;0.00;0.00;0.62;0.00;0.00;0.62;5.33;2.70;;;28.50;38.30;;;;;;2242003;62;20361;-70
2022/08/27 04:13:31;0.00;0.00;0.62;0.00;0.00;0.62;5.30;2.90;;;28.50;38.30;;;;;;2241517;62;20363;-70
2022/08/27 04:16:16;0.00;0.00;0.62;0.00;0.00;0.62;6.53;2.73;;;28.40;38.20;;;;;;2242169;62;20438;-69
2022/08/27 04:19:01;0.00;0.00;0.62;0.00;0.00;0.62;4.13;2.13;;;28.50;38.20;;;;;;2241630;62;20459;-69
2022/08/27 04:21:47;0.00;0.00;0.62;0.00;0.00;0.62;4.67;2.40;;;28.50;38.20;;;;;;2242299;62;20415;-70
2022/08/27 04:24:34;0.00;0.00;0.62;0.00;0.00;0.62;2.87;2.27;;;28.50;38.20;;;;;;2242235;62;20399;-69
2022/08/27 04:30:37;0.00;0.00;0.62;0.00;0.00;0.62;4.50;2.43;;;28.40;38.10;;;;;;2242183;62;20363;-71
2022/08/27 04:33:22;0.00;0.00;0.62;0.00;0.00;0.62;3.03;2.10;;;28.40;38.00;;;;;;2241944;62;20362;-69
2022/08/27 04:36:09;0.00;0.00;0.62;0.00;0.00;0.62;3.70;2.03;;;28.40;38.00;;;;;;2241410;62;20358;-68
2022/08/27 04:38:54;0.00;0.00;0.62;0.00;0.00;0.62;4.80;2.40;;;28.40;38.00;;;;;;2242087;62;20429;-71
2022/08/27 04:41:39;0.00;0.00;0.62;0.00;0.00;0.62;2.67;1.70;;;28.40;38.00;;;;;;2240895;62;20403;-69
2022/08/27 04:44:25;0.00;0.00;0.62;0.00;0.00;0.62;4.23;2.03;;;28.40;38.00;;;;;;2242149;62;20794;-70
2022/08/27 04:47:13;0.00;0.00;0.62;0.00;0.00;0.62;5.83;2.80;;;28.40;38.00;;;;;;2242004;62;20447;-70
2022/08/27 04:49:58;0.00;0.00;0.62;0.00;0.00;0.62;4.30;2.37;;;28.40;38.00;;;;;;2241252;62;20519;-71
2022/08/27 04:52:43;0.00;0.00;0.62;0.00;0.00;0.62;3.30;2.17;;;28.40;38.00;;;;;;2242197;62;20715;-69
2022/08/27 04:55:28;0.00;0.00;0.62;0.00;0.00;0.62;4.30;2.10;;;28.40;38.00;;;;;;2241265;62;20451;-70
2022/08/27 04:58:13;0.00;0.00;0.62;0.00;0.00;0.62;5.67;2.20;;;28.40;38.00;;;;;;2241823;62;20480;-70
2022/08/27 05:01:00;0.00;0.00;0.62;0.00;0.00;0.62;6.07;2.83;;;28.40;37.90;;;;;;2242206;62;20778;-70
2022/08/27 05:03:46;0.00;0.00;0.62;0.00;0.00;0.62;4.70;2.77;;;28.40;38.60;;;;;;2241107;62;20438;-70
2022/08/27 05:06:33;0.00;0.00;0.62;0.00;0.00;0.62;5.10;2.93;;;28.40;37.90;;;;;;2241993;62;20380;-70
2022/08/27 05:09:18;0.00;0.00;0.62;0.00;0.00;0.62;6.20;2.70;;;28.40;37.80;;;;;;2242149;62;20383;-70
2022/08/27 05:12:03;0.00;0.00;0.62;0.00;0.00;0.62;5.70;2.50;;;28.40;37.80;;;;;;2241188;62;20729;-71
2022/08/27 05:14:48;0.00;0.00;0.62;0.00;0.00;0.62;4.43;2.50;;;28.40;37.80;;;;;;2241848;62;20374;-71
2022/08/27 05:17:33;0.00;0.00;0.62;0.00;0.00;0.62;3.50;2.43;;;28.40;37.90;;;;;;2242018;62;20359;-70
2022/08/27 05:20:19;0.00;0.00;0.62;0.00;0.00;0.62;5.57;3.10;;;28.40;37.80;;;;;;2241731;62;20415;-70
2022/08/27 05:23:05;0.00;0.00;0.62;0.00;0.00;0.62;3.70;2.50;;;28.40;37.80;;;;;;2241910;61;20406;-69
2022/08/27 05:25:52;0.00;0.00;0.62;0.00;0.00;0.62;3.57;2.53;;;28.40;37.80;;;;;;2241578;62;20415;-68
2022/08/27 05:28:37;0.00;0.00;0.62;0.00;0.00;0.62;3.50;2.50;;;28.40;37.80;;;;;;2242263;62;20418;-71
2022/08/27 05:31:22;0.00;0.00;0.62;0.00;0.00;0.62;3.53;2.70;;;28.40;37.80;;;;;;2241989;62;20799;-68
2022/08/27 05:34:08;0.00;0.00;0.62;0.00;0.00;0.62;2.87;2.57;;;28.40;37.80;;;;;;2241159;62;20365;-69
2022/08/27 05:36:54;0.00;0.00;0.62;0.00;0.00;0.62;3.40;2.23;;;28.40;37.80;;;;;;2242106;62;20359;-68
2022/08/27 05:39:39;0.00;0.00;0.62;0.00;0.00;0.62;6.13;3.40;;;28.40;37.80;;;;;;2241813;62;20397;-74
2022/08/27 05:42:25;0.00;0.00;0.62;0.00;0.00;0.62;3.40;2.60;;;28.40;37.80;;;;;;2241441;62;20401;-74
2022/08/27 05:45:10;0.00;0.00;0.62;0.00;0.00;0.62;6.97;2.93;;;28.40;37.80;;;;;;2241976;62;20391;-72
2022/08/27 05:47:55;0.00;0.00;0.62;0.00;0.00;0.62;4.77;2.97;;;28.40;37.80;;;;;;2241340;62;20435;-75
2022/08/27 05:50:42;0.00;0.00;0.62;0.00;0.00;0.62;5.00;2.10;;;28.40;37.80;;;;;;2242094;62;20375;-73
2022/08/27 05:53:29;0.00;0.00;0.62;0.00;0.00;0.62;4.40;2.67;;;28.40;37.70;;;;;;2241612;62;20358;-73
2022/08/27 05:56:16;0.00;0.00;0.62;0.00;0.00;0.62;4.30;2.90;;;28.50;38.40;;;;;;2241222;62;20484;-68
2022/08/27 06:02:09;0.00;0.00;0.62;0.00;0.00;0.62;3.20;2.60;;;28.40;37.60;;;;;;2240264;62;20374;-72
2022/08/27 06:04:54;0.00;0.00;0.62;0.00;0.00;0.62;4.13;2.50;;;28.40;37.60;;;;;;2241701;62;20449;-68
2022/08/27 06:07:39;0.00;0.00;0.62;0.00;0.00;0.62;4.67;2.87;;;28.40;37.60;;;;;;2241933;62;20383;-69
2022/08/27 06:10:25;0.00;0.00;0.62;0.00;0.00;0.62;3.77;2.40;;;28.40;37.60;;;;;;2240455;62;20374;-68
2022/08/27 06:13:10;0.00;0.00;0.62;0.00;0.00;0.62;3.77;2.30;;;28.40;37.50;;;;;;2241945;62;20824;-67
2022/08/27 06:16:01;0.00;0.00;0.62;0.00;0.00;0.62;5.43;2.40;;;28.40;37.50;;;;;;2241722;62;20410;-68
2022/08/27 06:18:49;0.00;0.00;0.62;0.00;0.00;0.62;4.57;2.53;;;28.30;37.40;;;;;;2237867;62;20773;-65
2022/08/27 06:21:34;0.00;0.00;0.62;0.00;0.00;0.62;6.00;2.67;;;28.30;37.40;;;;;;2241999;62;20726;-65
2022/08/27 06:24:20;0.00;0.00;0.62;0.00;0.00;0.62;3.90;2.47;;;28.30;37.40;;;;;;2241585;62;20394;-71
2022/08/27 06:27:12;0.00;0.00;0.62;0.00;0.00;0.62;5.53;2.60;;;28.30;37.40;;;;;;2241426;62;20398;-71
2022/08/27 06:29:58;0.00;0.00;0.62;0.00;0.00;0.62;5.60;2.63;;;28.30;37.40;;;;;;2241820;62;20398;-70
2022/08/27 06:32:50;0.00;0.00;0.62;0.00;0.00;0.62;3.77;2.10;;;28.30;37.40;;;;;;2240893;62;20472;-72
2022/08/27 06:35:35;0.00;0.00;0.62;0.00;0.00;0.62;4.83;2.30;;;28.30;37.30;;;;;;2241060;62;20422;-70
2022/08/27 06:38:20;0.00;0.00;0.62;0.00;0.00;0.62;4.57;2.83;;;28.30;37.40;;;;;;2241764;62;20378;-69
2022/08/27 06:41:08;0.00;0.00;0.62;0.00;0.00;0.62;2.83;2.10;;;28.30;37.40;;;;;;2240798;62;20406;-71
2022/08/27 06:43:57;0.00;0.00;0.62;0.00;0.00;0.62;2.63;2.00;;;28.20;37.40;;;;;;2241727;62;20387;-73
2022/08/27 06:46:42;0.00;0.00;0.62;0.00;0.00;0.62;5.20;2.67;;;28.20;37.40;;;;;;2241333;62;20584;-69
2022/08/27 06:49:27;0.00;0.00;0.62;0.00;0.00;0.62;5.27;2.30;;;28.20;37.50;;;;;;2241162;62;20378;-70
2022/08/27 06:52:12;0.00;0.00;0.62;0.00;0.00;0.62;5.33;2.93;;;28.20;37.50;;;;;;2241346;62;20370;-71
2022/08/27 06:54:57;0.00;0.00;0.62;0.00;0.00;0.62;6.67;2.40;;;28.20;37.50;;;;;;2240579;62;20642;-70
2022/08/27 06:57:42;0.00;0.00;0.62;0.00;0.00;0.62;7.03;2.80;;;28.10;37.50;;;;;;2241726;62;20375;-70
2022/08/27 07:00:28;0.00;0.00;0.62;0.00;0.00;0.62;5.77;2.40;;;28.10;37.50;;;;;;2241708;62;20362;-70
2022/08/27 07:03:13;0.00;0.00;0.62;0.00;0.00;0.62;5.53;2.50;;;28.10;37.50;;;;;;2241065;62;20398;-70
2022/08/27 07:06:04;0.00;0.00;0.62;0.00;0.00;0.62;5.70;2.80;;;28.10;37.60;;;;;;2241653;62;20403;-71
2022/08/27 07:08:49;0.00;0.00;0.62;0.00;0.00;0.62;3.80;2.30;;;28.10;37.60;;;;;;2241472;62;20390;-71
2022/08/27 07:11:34;0.00;0.00;0.62;0.00;0.00;0.62;5.53;2.60;;;28.10;37.60;;;;;;2241523;62;20377;-70
2022/08/27 07:14:19;0.00;0.00;0.62;0.00;0.00;0.62;4.97;2.57;;;28.10;37.60;;;;;;2241689;62;20362;-70
2022/08/27 07:17:07;0.00;0.00;0.62;0.00;0.00;0.62;5.10;2.60;;;28.10;37.60;;;;;;2240566;62;20362;-70
2022/08/27 07:19:52;0.00;0.00;0.62;0.00;0.00;0.62;3.30;2.40;;;28.10;37.60;;;;;;2241711;62;20390;-69
2022/08/27 07:22:39;0.00;0.00;0.62;0.00;0.00;0.62;4.67;2.53;;;28.00;37.50;;;;;;2241420;62;20380;-70
2022/08/27 07:25:25;0.00;0.00;0.62;0.00;0.00;0.62;6.27;2.37;;;28.00;37.50;;;;;;2240721;62;20367;-70
2022/08/27 07:28:10;0.00;0.00;0.62;0.00;0.00;0.62;5.50;2.33;;;28.00;37.50;;;;;;2241829;62;20749;-71
2022/08/27 07:30:55;0.00;0.00;0.62;0.00;0.00;0.62;3.80;2.23;;;28.00;37.50;;;;;;2241465;62;20370;-70
2022/08/27 07:33:41;0.00;0.00;0.62;0.00;0.00;0.62;6.83;2.00;;;28.00;37.60;;;;;;2240944;62;20359;-70
2022/08/27 07:36:27;0.00;0.00;0.62;0.00;0.00;0.62;6.57;2.70;;;28.00;37.60;;;;;;2241578;62;20378;-70
2022/08/27 07:39:15;0.00;0.00;0.62;0.00;0.00;0.62;4.90;1.97;;;28.00;37.50;;;;;;2240812;62;20418;-69
2022/08/27 07:45:05;0.00;0.00;0.62;0.00;0.00;0.62;3.70;2.10;;;28.00;37.50;;;;;;2241631;62;20378;-70
2022/08/27 07:47:50;0.00;0.00;0.62;0.00;0.00;0.62;3.77;2.10;;;28.00;37.50;;;;;;2241559;62;20487;-70
2022/08/27 07:50:37;0.00;0.00;0.62;0.00;0.00;0.62;4.57;2.13;;;28.00;37.50;;;;;;2242349;62;20391;-69
2022/08/27 07:53:22;0.00;0.00;0.62;0.00;0.00;0.62;6.87;2.20;;;28.00;37.50;;;;;;2241660;62;20387;-69
2022/08/27 07:56:07;0.00;0.00;0.62;0.00;0.00;0.62;10.93;2.93;;;27.90;37.40;;;;;;2241827;62;20394;-69
2022/08/27 07:58:52;0.00;0.00;0.62;0.00;0.00;0.62;4.70;2.07;;;27.90;37.40;;;;;;2242245;62;20379;-69
2022/08/27 08:01:37;0.00;0.00;0.62;0.00;0.00;0.62;3.50;1.40;;;27.90;37.40;;;;;;2241270;62;20358;-69
2022/08/27 08:04:22;0.00;0.00;0.62;0.00;0.00;0.62;4.20;2.50;;;27.90;37.50;;;;;;2242331;62;20515;-69
2022/08/27 08:07:09;0.00;0.00;0.62;0.00;0.00;0.62;2.73;1.70;;;27.90;37.50;;;;;;2242116;62;20422;-70
2022/08/27 08:09:54;0.00;0.00;0.62;0.00;0.00;0.62;4.80;2.57;;;27.90;37.50;;;;;;2241513;62;20507;-69
2022/08/27 08:12:40;0.00;0.00;0.62;0.00;0.00;0.62;3.47;1.77;;;27.90;37.60;;;;;;2242395;62;20477;-69
2022/08/27 08:15:24;0.00;0.00;0.62;0.00;0.00;0.62;3.50;2.10;;;27.90;37.50;;;;;;2241282;62;20358;-69
2022/08/27 08:18:10;0.00;0.00;0.62;0.00;0.00;0.62;5.83;2.57;;;27.90;37.50;;;;;;2241993;62;20426;-69
2022/08/27 08:20:59;0.00;0.00;0.62;0.00;0.00;0.62;5.03;2.40;;;27.90;37.50;;;;;;2242329;62;20479;-69
2022/08/27 08:23:48;0.00;0.00;0.62;0.00;0.00;0.62;4.27;2.23;;;27.90;37.60;;;;;;2241004;62;20532;-69
2022/08/27 08:26:32;0.00;0.00;0.62;0.00;0.00;0.62;4.57;2.10;;;27.90;37.50;;;;;;2242281;62;20598;-69
2022/08/27 08:29:17;0.00;0.00;0.62;0.00;0.00;0.62;4.20;2.33;;;27.90;37.50;;;;;;2242161;62;20379;-69
2022/08/27 08:32:03;0.00;0.00;0.62;0.00;0.00;0.62;5.33;2.27;;;27.90;37.60;;;;;;2241450;62;20366;-69
2022/08/27 08:34:49;0.00;0.00;0.62;0.00;0.00;0.62;3.73;1.90;;;27.90;37.50;;;;;;2242163;62;20403;-69
2022/08/27 08:37:34;0.00;0.00;0.62;0.00;0.00;0.62;5.20;2.87;;;27.90;37.60;;;;;;2241407;62;20366;-69
2022/08/27 08:40:30;0.00;0.00;0.62;0.00;0.00;0.62;6.17;2.20;;;27.80;37.50;;;;;;2242091;62;20410;-69
2022/08/27 08:43:28;0.00;0.00;0.62;0.00;0.00;0.62;5.83;2.10;;;27.80;37.50;;;;;;2242127;62;20469;-69
2022/08/27 08:46:36;0.00;0.00;0.62;0.00;0.00;0.62;5.90;2.80;;;27.80;37.50;;;;;;2241127;62;20615;-69
2022/08/27 08:49:35;0.00;0.00;0.62;0.00;0.00;0.62;3.43;2.00;;;27.90;37.60;;;;;;2242195;62;20801;-69
2022/08/27 08:52:39;0.00;0.00;0.62;0.00;0.00;0.62;10.13;2.60;;;27.80;37.50;;;;;;2241924;62;20576;-69
2022/08/27 08:55:39;0.00;0.00;0.62;0.00;0.00;0.62;3.57;2.00;;;27.80;37.40;;;;;;2241711;62;20358;-69
2022/08/27 08:58:33;0.00;0.00;0.62;0.00;0.00;0.62;2.53;2.07;;;27.80;37.50;;;;;;2241495;62;20782;-69
2022/08/27 09:01:20;0.00;0.00;0.62;0.00;0.00;0.62;3.30;1.93;;;27.80;37.50;;;;;;2241211;62;20359;-69
2022/08/27 09:04:10;0.00;0.00;0.62;0.00;0.00;0.62;6.50;2.67;;;27.80;37.50;;;;;;2242097;62;20390;-69
2022/08/27 09:07:01;0.00;0.00;0.62;0.00;0.00;0.62;3.43;2.50;;;27.80;37.40;;;;;;2241582;62;20783;-69
2022/08/27 09:09:53;0.00;0.00;0.62;0.00;0.00;0.62;6.30;2.90;;;27.80;37.50;;;;;;2241840;62;20391;-69
2022/08/27 09:12:40;0.00;0.00;0.62;0.00;0.00;0.62;5.27;1.90;;;27.80;37.50;;;;;;2242037;62;20759;-69
2022/08/27 09:15:30;0.00;0.00;0.62;0.00;0.00;0.62;3.10;2.47;;;27.80;37.40;;;;;;2240899;62;20366;-69
2022/08/27 09:18:16;0.00;0.00;0.62;0.00;0.00;0.62;4.70;3.00;;;27.80;37.40;;;;;;2242002;62;20790;-69
2022/08/27 09:21:09;0.00;0.00;0.62;0.00;0.00;0.62;3.73;2.40;;;27.80;37.40;;;;;;2242115;62;20362;-69
2022/08/27 09:24:04;0.00;0.00;0.62;0.00;0.00;0.62;7.87;2.30;;;27.80;37.40;;;;;;2241392;62;20382;-69
2022/08/27 09:26:49;0.00;0.00;0.62;0.00;0.00;0.62;3.47;2.30;;;27.80;37.40;;;;;;2241876;62;20371;-69
2022/08/27 09:29:37;0.00;0.00;0.62;0.00;0.00;0.62;5.97;2.40;;;27.80;37.40;;;;;;2240990;62;20378;-69
2022/08/27 09:32:25;0.00;0.00;0.62;0.00;0.00;0.62;2.83;2.37;;;27.80;37.50;;;;;;2241768;62;20363;-69
2022/08/27 09:35:12;0.00;0.00;0.62;0.00;0.00;0.62;7.37;2.53;;;27.80;37.40;;;;;;2241795;62;20358;-69
2022/08/27 09:37:57;0.00;0.00;0.62;0.00;0.00;0.62;6.47;2.50;;;27.80;37.40;;;;;;2240611;62;20358;-69
2022/08/27 09:40:49;0.00;0.00;0.62;0.00;0.00;0.62;3.60;2.30;;;27.80;37.30;;;;;;2241996;62;20414;-69
2022/08/27 09:43:35;0.00;0.00;0.62;0.00;0.00;0.62;4.37;2.43;;;27.80;37.30;;;;;;2241986;62;20427;-69
2022/08/27 09:46:24;0.00;0.00;0.62;0.00;0.00;0.62;5.20;2.93;;;27.80;37.30;;;;;;2241264;62;20371;-69
2022/08/27 09:49:11;0.00;0.00;0.62;0.00;0.00;0.62;3.83;2.57;;;27.70;37.30;;;;;;2241906;62;20386;-69
2022/08/27 09:51:58;0.00;0.00;0.62;0.00;0.00;0.62;4.13;2.33;;;27.70;37.40;;;;;;2241385;62;20406;-69
2022/08/27 09:54:46;0.00;0.00;0.62;0.00;0.00;0.62;4.40;2.73;;;27.80;37.50;;;;;;2241752;62;20403;-69
2022/08/27 09:57:38;0.00;0.00;0.62;0.00;0.00;0.62;7.67;2.73;;;27.70;37.40;;;;;;2241971;62;20411;-69
2022/08/27 10:00:35;0.00;0.00;0.62;0.00;0.00;0.62;4.10;2.10;;;27.80;38.20;;;;;;2240982;62;20358;-69
2022/08/27 10:03:21;0.00;0.00;0.62;0.00;0.00;0.62;4.87;2.57;;;27.80;37.60;;;;;;2242078;62;20381;-69
2022/08/27 10:06:08;0.00;0.00;0.62;0.00;0.00;0.62;4.17;2.70;;;27.80;37.50;;;;;;2241540;62;20441;-69
2022/08/27 10:08:56;0.00;0.00;0.62;0.00;0.00;0.62;3.37;2.50;;;27.80;37.50;;;;;;2241278;62;20779;-69
2022/08/27 10:11:51;0.00;0.00;0.62;0.00;0.00;0.62;3.80;2.33;;;27.80;37.50;;;;;;2241910;62;20386;-70
2022/08/27 10:14:41;0.00;0.00;0.62;0.00;0.00;0.62;4.10;2.17;;;27.80;37.50;;;;;;2240818;62;20399;-70
2022/08/27 10:17:41;0.00;0.00;0.62;0.00;0.00;0.62;5.80;2.30;;;27.80;37.50;;;;;;2241888;62;20359;-69
2022/08/27 10:20:38;0.00;0.00;0.62;0.00;0.00;0.62;3.70;2.37;;;27.90;37.60;;;;;;2241890;62;20362;-71
2022/08/27 10:23:34;0.00;0.00;0.62;0.00;0.00;0.62;3.23;1.90;;;27.90;37.50;;;;;;2241177;62;20619;-71
2022/08/27 10:26:24;0.00;0.00;0.62;0.00;0.00;0.62;2.77;2.30;;;27.90;37.50;;;;;;2241895;62;20363;-70
2022/08/27 10:29:23;0.00;0.00;0.62;0.00;0.00;0.62;4.10;2.50;;;27.90;37.40;;;;;;2241133;62;20399;-71
2022/08/27 10:32:27;0.00;0.00;0.62;0.00;0.00;0.62;4.23;2.50;;;28.00;37.50;;;;;;2241955;62;20411;-70
2022/08/27 10:35:18;0.00;0.00;0.62;0.00;0.00;0.62;4.60;2.33;;;27.90;37.40;;;;;;2241629;62;20358;-70
2022/08/27 10:38:16;0.00;0.00;0.62;0.00;0.00;0.62;4.30;2.60;;;28.00;37.30;;;;;;2241063;62;20398;-70
2022/08/27 10:41:14;0.00;0.00;0.62;0.00;0.00;0.62;5.20;2.00;;;28.00;37.30;;;;;;2241931;62;20398;-69
2022/08/27 10:44:35;0.00;0.00;0.62;0.00;0.00;0.62;4.43;2.10;;;28.00;37.30;;;;;;2241064;62;20410;-70
2022/08/27 10:47:40;0.00;0.00;0.62;0.00;0.00;0.62;2.70;1.90;;;28.00;37.20;;;;;;2241886;62;20435;-71
2022/08/27 10:50:32;0.00;0.00;0.62;0.00;0.00;0.62;3.00;1.80;;;28.00;37.10;;;;;;2241133;62;20379;-71
2022/08/27 10:53:31;0.00;0.00;0.62;0.00;0.00;0.62;7.40;2.33;;;28.00;37.10;;;;;;2241317;62;20387;-71
2022/08/27 10:56:23;0.00;0.00;0.62;0.00;0.00;0.62;4.43;2.40;;;28.10;37.10;;;;;;2241728;62;20727;-70
2022/08/27 10:59:20;0.00;0.00;0.62;0.00;0.00;0.62;4.67;2.00;;;28.10;37.00;;;;;;2240609;62;20397;-71
2022/08/27 11:02:13;0.00;0.00;0.62;0.00;0.00;0.62;3.37;2.00;;;28.10;37.00;;;;;;2241871;62;20403;-71
2022/08/27 11:05:05;0.00;0.00;0.62;0.00;0.00;0.62;4.77;2.30;;;28.10;37.00;;;;;;2241477;62;20470;-70
2022/08/27 11:07:58;0.00;0.00;0.62;0.00;0.00;0.62;3.07;1.77;;;28.10;36.90;;;;;;2241155;62;20374;-71
2022/08/27 11:10:50;0.00;0.00;0.62;0.00;0.00;0.62;4.03;1.93;;;28.20;37.00;;;;;;2241727;62;20383;-71
2022/08/27 11:13:40;0.00;0.00;0.62;0.00;0.00;0.62;4.23;2.47;;;28.10;36.70;;;;;;2241248;62;20358;-71